Redoak, Ohio
Current Conditions -  °F | °C
As of 12:35 AM on Sunday 28 Dec 2014 (Local Time) from KFGX Reporting Station
Drizzle Drizzle  
Wind Chill:   Ceiling: 300
Heat Index:   Visibility: 1mi
Dew Point:   Wind: 6mph
Humidity: 99%   Direction: 240°WSW
Pressure: 30.08"   Gusts: NA
Location:  38.776°N, 83.7985°W
Report Text: KFGX 280535Z AUTO 24005KT 1SM DZ OVC003 07/07 A3008 RMK AO2 T00720071
Loading
Personal Weather Stations






























Interactive Weather Map New forecast layout! Learn more

10-Day Weather Forecast

Advertisements
Track Severe Weather on mobile